sensor_id;sensor_type;location;lat;lon;timestamp;temperature;humidity
54461;DHT22;69977;49.414;11.010;2024-02-15T00:01:04;7.80;99.90
54461;DHT22;69977;49.414;11.010;2024-02-15T00:03:30;7.80;99.90
54461;DHT22;69977;49.414;11.010;2024-02-15T00:05:57;7.80;99.90
54461;DHT22;69977;49.414;11.010;2024-02-15T00:08:23;7.90;99.90
54461;DHT22;69977;49.414;11.010;2024-02-15T00:10:50;7.80;99.90
54461;DHT22;69977;49.414;11.010;2024-02-15T00:13:16;7.80;99.90
54461;DHT22;69977;49.414;11.010;2024-02-15T00:15:42;7.80;99.90
54461;DHT22;69977;49.414;11.010;2024-02-15T00:18:08;7.90;99.90
54461;DHT22;69977;49.414;11.010;2024-02-15T00:20:34;7.90;99.90
54461;DHT22;69977;49.414;11.010;2024-02-15T00:23:00;7.90;99.90
54461;DHT22;69977;49.414;11.010;2024-02-15T00:25:26;7.80;99.90
54461;DHT22;69977;49.414;11.010;2024-02-15T00:27:52;7.80;99.90
54461;DHT22;69977;49.414;11.010;2024-02-15T00:30:18;7.80;99.90
54461;DHT22;69977;49.414;11.010;2024-02-15T00:32:43;7.90;99.90
54461;DHT22;69977;49.414;11.010;2024-02-15T00:35:12;7.80;99.90
54461;DHT22;69977;49.414;11.010;2024-02-15T00:37:40;7.90;99.90
54461;DHT22;69977;49.414;11.010;2024-02-15T00:40:07;7.90;99.90
54461;DHT22;69977;49.414;11.010;2024-02-15T00:42:33;7.80;99.90
54461;DHT22;69977;49.414;11.010;2024-02-15T00:44:59;7.80;99.90
54461;DHT22;69977;49.414;11.010;2024-02-15T00:47:25;7.80;99.90
54461;DHT22;69977;49.414;11.010;2024-02-15T00:49:50;7.80;99.90
54461;DHT22;69977;49.414;11.010;2024-02-15T00:52:17;7.80;99.90
54461;DHT22;69977;49.414;11.010;2024-02-15T00:54:46;7.80;99.90
54461;DHT22;69977;49.414;11.010;2024-02-15T00:57:12;7.80;99.90
54461;DHT22;69977;49.414;11.010;2024-02-15T00:59:38;7.80;99.90
54461;DHT22;69977;49.414;11.010;2024-02-15T01:02:04;7.80;99.90
54461;DHT22;69977;49.414;11.010;2024-02-15T01:04:34;7.80;99.90
54461;DHT22;69977;49.414;11.010;2024-02-15T01:07:00;7.80;99.90
54461;DHT22;69977;49.414;11.010;2024-02-15T01:09:26;7.80;99.90
54461;DHT22;69977;49.414;11.010;2024-02-15T01:11:51;7.80;99.90
54461;DHT22;69977;49.414;11.010;2024-02-15T01:14:17;7.80;99.90
54461;DHT22;69977;49.414;11.010;2024-02-15T01:16:43;7.80;99.90
54461;DHT22;69977;49.414;11.010;2024-02-15T01:19:10;7.90;99.90
54461;DHT22;69977;49.414;11.010;2024-02-15T01:21:36;7.80;99.90
54461;DHT22;69977;49.414;11.010;2024-02-15T01:24:02;7.80;99.90
54461;DHT22;69977;49.414;11.010;2024-02-15T01:26:29;7.80;99.90
54461;DHT22;69977;49.414;11.010;2024-02-15T01:28:58;7.80;99.90
54461;DHT22;69977;49.414;11.010;2024-02-15T01:31:24;7.80;99.90
54461;DHT22;69977;49.414;11.010;2024-02-15T01:33:50;7.80;99.90
54461;DHT22;69977;49.414;11.010;2024-02-15T01:36:16;7.80;99.90
54461;DHT22;69977;49.414;11.010;2024-02-15T01:38:43;7.70;99.90
54461;DHT22;69977;49.414;11.010;2024-02-15T01:41:10;7.80;99.90
54461;DHT22;69977;49.414;11.010;2024-02-15T01:43:36;7.70;99.90
54461;DHT22;69977;49.414;11.010;2024-02-15T01:46:08;7.70;99.90
54461;DHT22;69977;49.414;11.010;2024-02-15T01:48:36;7.70;99.90
54461;DHT22;69977;49.414;11.010;2024-02-15T01:51:03;7.70;99.90
54461;DHT22;69977;49.414;11.010;2024-02-15T01:53:30;7.60;99.90
54461;DHT22;69977;49.414;11.010;2024-02-15T01:55:56;7.60;99.90
54461;DHT22;69977;49.414;11.010;2024-02-15T01:58:27;7.60;99.90
54461;DHT22;69977;49.414;11.010;2024-02-15T02:00:56;7.70;99.90
54461;DHT22;69977;49.414;11.010;2024-02-15T02:03:22;7.70;99.90
54461;DHT22;69977;49.414;11.010;2024-02-15T02:05:48;7.60;99.90
54461;DHT22;69977;49.414;11.010;2024-02-15T02:08:15;7.60;99.90
54461;DHT22;69977;49.414;11.010;2024-02-15T02:10:41;7.60;99.90
54461;DHT22;69977;49.414;11.010;2024-02-15T02:13:09;7.60;99.90
54461;DHT22;69977;49.414;11.010;2024-02-15T02:15:35;7.60;99.90
54461;DHT22;69977;49.414;11.010;2024-02-15T02:18:03;7.60;99.90
54461;DHT22;69977;49.414;11.010;2024-02-15T02:20:34;7.60;99.90
54461;DHT22;69977;49.414;11.010;2024-02-15T02:23:08;7.50;99.90
54461;DHT22;69977;49.414;11.010;2024-02-15T02:25:35;7.50;99.90
54461;DHT22;69977;49.414;11.010;2024-02-15T02:28:02;7.60;99.90
54461;DHT22;69977;49.414;11.010;2024-02-15T02:30:28;7.50;99.90
54461;DHT22;69977;49.414;11.010;2024-02-15T02:32:58;7.60;99.90
54461;DHT22;69977;49.414;11.010;2024-02-15T02:35:25;7.60;99.90
54461;DHT22;69977;49.414;11.010;2024-02-15T02:37:51;7.60;99.90
54461;DHT22;69977;49.414;11.010;2024-02-15T02:40:20;7.50;99.90
54461;DHT22;69977;49.414;11.010;2024-02-15T02:42:49;7.50;99.90
54461;DHT22;69977;49.414;11.010;2024-02-15T02:45:17;7.50;99.90
54461;DHT22;69977;49.414;11.010;2024-02-15T02:47:52;7.50;99.90
54461;DHT22;69977;49.414;11.010;2024-02-15T02:50:22;7.50;99.90
54461;DHT22;69977;49.414;11.010;2024-02-15T02:52:48;7.50;99.90
54461;DHT22;69977;49.414;11.010;2024-02-15T02:55:15;7.50;99.90
54461;DHT22;69977;49.414;11.010;2024-02-15T02:57:41;7.50;99.90
54461;DHT22;69977;49.414;11.010;2024-02-15T03:00:10;7.50;99.90
54461;DHT22;69977;49.414;11.010;2024-02-15T03:02:45;7.50;99.90
54461;DHT22;69977;49.414;11.010;2024-02-15T03:05:12;7.50;99.90
54461;DHT22;69977;49.414;11.010;2024-02-15T03:07:39;7.40;99.90
54461;DHT22;69977;49.414;11.010;2024-02-15T03:10:08;7.50;99.90
54461;DHT22;69977;49.414;11.010;2024-02-15T03:12:35;7.40;99.90
54461;DHT22;69977;49.414;11.010;2024-02-15T03:15:05;7.40;99.90
54461;DHT22;69977;49.414;11.010;2024-02-15T03:17:38;7.40;99.90
54461;DHT22;69977;49.414;11.010;2024-02-15T03:20:09;7.40;99.90
54461;DHT22;69977;49.414;11.010;2024-02-15T03:25:17;7.40;99.90
54461;DHT22;69977;49.414;11.010;2024-02-15T03:27:43;7.40;99.90
54461;DHT22;69977;49.414;11.010;2024-02-15T03:30:09;7.40;99.90
54461;DHT22;69977;49.414;11.010;2024-02-15T03:32:36;7.40;99.90
54461;DHT22;69977;49.414;11.010;2024-02-15T03:35:03;7.30;99.90
54461;DHT22;69977;49.414;11.010;2024-02-15T03:37:29;7.40;99.90
54461;DHT22;69977;49.414;11.010;2024-02-15T03:39:55;7.40;99.90
54461;DHT22;69977;49.414;11.010;2024-02-15T03:42:21;7.40;99.90
54461;DHT22;69977;49.414;11.010;2024-02-15T03:44:47;7.30;99.90
54461;DHT22;69977;49.414;11.010;2024-02-15T03:47:13;7.30;99.90
54461;DHT22;69977;49.414;11.010;2024-02-15T03:49:41;7.40;99.90
54461;DHT22;69977;49.414;11.010;2024-02-15T03:52:08;7.40;99.90
54461;DHT22;69977;49.414;11.010;2024-02-15T03:54:37;7.40;99.90
54461;DHT22;69977;49.414;11.010;2024-02-15T03:57:03;7.40;99.90
54461;DHT22;69977;49.414;11.010;2024-02-15T03:59:29;7.30;99.90
54461;DHT22;69977;49.414;11.010;2024-02-15T04:01:58;7.30;99.90
54461;DHT22;69977;49.414;11.010;2024-02-15T04:04:24;7.30;99.90
54461;DHT22;69977;49.414;11.010;2024-02-15T04:06:50;7.30;99.90
54461;DHT22;69977;49.414;11.010;2024-02-15T04:09:17;7.30;99.90
54461;DHT22;69977;49.414;11.010;2024-02-15T04:11:47;7.30;99.90
54461;DHT22;69977;49.414;11.010;2024-02-15T04:14:19;7.30;99.90
54461;DHT22;69977;49.414;11.010;2024-02-15T04:16:45;7.30;99.90
54461;DHT22;69977;49.414;11.010;2024-02-15T04:19:11;7.10;99.90
54461;DHT22;69977;49.414;11.010;2024-02-15T04:21:37;7.10;99.90
54461;DHT22;69977;49.414;11.010;2024-02-15T04:24:04;6.90;99.90
54461;DHT22;69977;49.414;11.010;2024-02-15T04:26:31;6.80;99.90
54461;DHT22;69977;49.414;11.010;2024-02-15T04:28:58;6.70;99.90
54461;DHT22;69977;49.414;11.010;2024-02-15T04:31:24;6.70;99.90
54461;DHT22;69977;49.414;11.010;2024-02-15T04:33:54;6.60;99.90
54461;DHT22;69977;49.414;11.010;2024-02-15T04:36:20;6.40;99.90
54461;DHT22;69977;49.414;11.010;2024-02-15T04:38:50;6.30;99.90
54461;DHT22;69977;49.414;11.010;2024-02-15T04:41:17;6.30;99.90
54461;DHT22;69977;49.414;11.010;2024-02-15T04:43:48;6.20;99.90
54461;DHT22;69977;49.414;11.010;2024-02-15T04:46:14;6.00;99.90
54461;DHT22;69977;49.414;11.010;2024-02-15T04:48:41;6.00;99.90
54461;DHT22;69977;49.414;11.010;2024-02-15T04:51:10;5.90;99.90
54461;DHT22;69977;49.414;11.010;2024-02-15T04:53:37;5.90;99.90
54461;DHT22;69977;49.414;11.010;2024-02-15T04:56:05;5.90;99.90
54461;DHT22;69977;49.414;11.010;2024-02-15T04:58:37;5.90;99.90
54461;DHT22;69977;49.414;11.010;2024-02-15T05:01:04;5.90;99.90
54461;DHT22;69977;49.414;11.010;2024-02-15T05:03:32;5.80;99.90
54461;DHT22;69977;49.414;11.010;2024-02-15T05:06:00;5.80;99.90
54461;DHT22;69977;49.414;11.010;2024-02-15T05:08:26;5.70;99.90
54461;DHT22;69977;49.414;11.010;2024-02-15T05:10:53;5.70;99.90
54461;DHT22;69977;49.414;11.010;2024-02-15T05:13:24;5.70;99.90
54461;DHT22;69977;49.414;11.010;2024-02-15T05:15:50;5.60;99.90
54461;DHT22;69977;49.414;11.010;2024-02-15T05:18:16;5.60;99.90
54461;DHT22;69977;49.414;11.010;2024-02-15T05:20:42;5.50;99.90
54461;DHT22;69977;49.414;11.010;2024-02-15T05:23:08;5.50;99.90
54461;DHT22;69977;49.414;11.010;2024-02-15T05:25:34;5.50;99.90
54461;DHT22;69977;49.414;11.010;2024-02-15T05:28:01;5.40;99.90
54461;DHT22;69977;49.414;11.010;2024-02-15T05:30:27;5.40;99.90
54461;DHT22;69977;49.414;11.010;2024-02-15T05:32:53;5.40;99.90
54461;DHT22;69977;49.414;11.010;2024-02-15T05:35:19;5.50;99.90
54461;DHT22;69977;49.414;11.010;2024-02-15T05:37:45;5.50;99.90
54461;DHT22;69977;49.414;11.010;2024-02-15T05:40:12;5.70;99.90
54461;DHT22;69977;49.414;11.010;2024-02-15T05:42:44;5.70;99.90
54461;DHT22;69977;49.414;11.010;2024-02-15T05:47:52;5.70;99.90
54461;DHT22;69977;49.414;11.010;2024-02-15T05:50:18;5.80;99.90
54461;DHT22;69977;49.414;11.010;2024-02-15T05:52:49;5.90;99.90
54461;DHT22;69977;49.414;11.010;2024-02-15T05:55:18;5.90;99.90
54461;DHT22;69977;49.414;11.010;2024-02-15T05:57:44;6.00;99.90
54461;DHT22;69977;49.414;11.010;2024-02-15T06:00:11;6.10;99.90
54461;DHT22;69977;49.414;11.010;2024-02-15T06:02:37;6.00;99.90
54461;DHT22;69977;49.414;11.010;2024-02-15T06:05:04;6.10;99.90
54461;DHT22;69977;49.414;11.010;2024-02-15T06:07:31;6.10;99.90
54461;DHT22;69977;49.414;11.010;2024-02-15T06:10:00;6.20;99.90
54461;DHT22;69977;49.414;11.010;2024-02-15T06:12:30;6.10;99.90
54461;DHT22;69977;49.414;11.010;2024-02-15T06:14:56;6.10;99.90
54461;DHT22;69977;49.414;11.010;2024-02-15T06:17:21;6.20;99.90
54461;DHT22;69977;49.414;11.010;2024-02-15T06:19:47;6.20;99.90
54461;DHT22;69977;49.414;11.010;2024-02-15T06:22:13;6.30;99.90
54461;DHT22;69977;49.414;11.010;2024-02-15T06:24:40;6.30;99.90
54461;DHT22;69977;49.414;11.010;2024-02-15T06:27:07;6.30;99.90
54461;DHT22;69977;49.414;11.010;2024-02-15T06:29:33;6.30;99.90
54461;DHT22;69977;49.414;11.010;2024-02-15T06:32:17;6.30;99.90
54461;DHT22;69977;49.414;11.010;2024-02-15T06:35:02;6.30;99.90
54461;DHT22;69977;49.414;11.010;2024-02-15T06:37:46;6.40;99.90
54461;DHT22;69977;49.414;11.010;2024-02-15T06:40:31;6.40;99.90
54461;DHT22;69977;49.414;11.010;2024-02-15T06:42:56;6.40;99.90
54461;DHT22;69977;49.414;11.010;2024-02-15T06:45:22;6.40;99.90
54461;DHT22;69977;49.414;11.010;2024-02-15T06:47:49;6.50;99.90
54461;DHT22;69977;49.414;11.010;2024-02-15T06:50:15;6.50;99.90
54461;DHT22;69977;49.414;11.010;2024-02-15T06:52:43;6.60;99.90
54461;DHT22;69977;49.414;11.010;2024-02-15T06:55:09;6.60;99.90
54461;DHT22;69977;49.414;11.010;2024-02-15T06:57:41;6.60;99.90
54461;DHT22;69977;49.414;11.010;2024-02-15T07:00:09;6.70;99.90
54461;DHT22;69977;49.414;11.010;2024-02-15T07:02:35;6.70;99.90
54461;DHT22;69977;49.414;11.010;2024-02-15T07:05:01;6.70;99.90
54461;DHT22;69977;49.414;11.010;2024-02-15T07:07:28;6.70;99.90
54461;DHT22;69977;49.414;11.010;2024-02-15T07:09:54;6.70;99.90
54461;DHT22;69977;49.414;11.010;2024-02-15T07:12:20;6.80;99.90
54461;DHT22;69977;49.414;11.010;2024-02-15T07:14:47;6.80;99.90
54461;DHT22;69977;49.414;11.010;2024-02-15T07:17:13;6.80;99.90
54461;DHT22;69977;49.414;11.010;2024-02-15T07:19:46;6.90;99.90
54461;DHT22;69977;49.414;11.010;2024-02-15T07:22:17;6.90;99.90
54461;DHT22;69977;49.414;11.010;2024-02-15T07:24:43;6.90;99.90
54461;DHT22;69977;49.414;11.010;2024-02-15T07:27:09;7.00;99.90
54461;DHT22;69977;49.414;11.010;2024-02-15T07:29:38;7.00;99.90
54461;DHT22;69977;49.414;11.010;2024-02-15T07:32:04;7.20;99.90
54461;DHT22;69977;49.414;11.010;2024-02-15T07:34:32;7.20;99.90
54461;DHT22;69977;49.414;11.010;2024-02-15T07:37:02;7.20;99.90
54461;DHT22;69977;49.414;11.010;2024-02-15T07:39:28;7.30;99.90
54461;DHT22;69977;49.414;11.010;2024-02-15T07:41:54;7.30;99.90
54461;DHT22;69977;49.414;11.010;2024-02-15T07:44:21;7.40;99.90
54461;DHT22;69977;49.414;11.010;2024-02-15T07:46:50;7.40;99.90
54461;DHT22;69977;49.414;11.010;2024-02-15T07:49:16;7.40;99.90
54461;DHT22;69977;49.414;11.010;2024-02-15T07:51:43;7.50;99.90
54461;DHT22;69977;49.414;11.010;2024-02-15T07:54:09;7.50;99.90
54461;DHT22;69977;49.414;11.010;2024-02-15T07:56:36;7.50;99.90
54461;DHT22;69977;49.414;11.010;2024-02-15T07:59:02;7.60;99.90
54461;DHT22;69977;49.414;11.010;2024-02-15T08:01:28;7.60;99.90
54461;DHT22;69977;49.414;11.010;2024-02-15T08:03:56;7.60;99.90
54461;DHT22;69977;49.414;11.010;2024-02-15T08:06:22;7.70;99.90
54461;DHT22;69977;49.414;11.010;2024-02-15T08:08:53;7.70;99.90
54461;DHT22;69977;49.414;11.010;2024-02-15T08:11:19;7.80;99.90
54461;DHT22;69977;49.414;11.010;2024-02-15T08:13:49;7.80;99.90
54461;DHT22;69977;49.414;11.010;2024-02-15T08:16:17;7.80;99.90
54461;DHT22;69977;49.414;11.010;2024-02-15T08:18:46;7.90;99.90
54461;DHT22;69977;49.414;11.010;2024-02-15T08:21:12;7.90;99.90
54461;DHT22;69977;49.414;11.010;2024-02-15T08:23:38;8.00;99.90
54461;DHT22;69977;49.414;11.010;2024-02-15T08:26:04;8.10;99.90
54461;DHT22;69977;49.414;11.010;2024-02-15T08:28:30;8.00;99.90
54461;DHT22;69977;49.414;11.010;2024-02-15T08:30:56;8.00;99.90
54461;DHT22;69977;49.414;11.010;2024-02-15T08:33:25;8.00;99.90
54461;DHT22;69977;49.414;11.010;2024-02-15T08:35:54;8.10;99.90
54461;DHT22;69977;49.414;11.010;2024-02-15T08:38:23;8.10;99.90
54461;DHT22;69977;49.414;11.010;2024-02-15T08:40:49;8.20;99.90
54461;DHT22;69977;49.414;11.010;2024-02-15T08:43:16;8.20;99.90
54461;DHT22;69977;49.414;11.010;2024-02-15T08:45:42;8.30;99.90
54461;DHT22;69977;49.414;11.010;2024-02-15T08:48:09;8.40;99.90
54461;DHT22;69977;49.414;11.010;2024-02-15T08:50:35;8.50;99.90
54461;DHT22;69977;49.414;11.010;2024-02-15T08:53:01;8.60;99.90
54461;DHT22;69977;49.414;11.010;2024-02-15T08:55:31;8.60;99.90
54461;DHT22;69977;49.414;11.010;2024-02-15T08:57:57;8.60;99.90
54461;DHT22;69977;49.414;11.010;2024-02-15T09:00:25;8.70;99.90
54461;DHT22;69977;49.414;11.010;2024-02-15T09:02:52;8.70;99.90
54461;DHT22;69977;49.414;11.010;2024-02-15T09:05:19;8.80;99.90
54461;DHT22;69977;49.414;11.010;2024-02-15T09:07:48;8.90;99.90
54461;DHT22;69977;49.414;11.010;2024-02-15T09:10:15;9.00;99.90
54461;DHT22;69977;49.414;11.010;2024-02-15T09:12:44;9.10;99.90
54461;DHT22;69977;49.414;11.010;2024-02-15T09:15:13;9.20;99.90
54461;DHT22;69977;49.414;11.010;2024-02-15T09:17:40;9.30;99.90
54461;DHT22;69977;49.414;11.010;2024-02-15T09:20:11;9.40;99.90
54461;DHT22;69977;49.414;11.010;2024-02-15T09:25:08;9.60;99.90
54461;DHT22;69977;49.414;11.010;2024-02-15T09:27:34;9.70;99.90
54461;DHT22;69977;49.414;11.010;2024-02-15T09:29:59;9.80;99.90
54461;DHT22;69977;49.414;11.010;2024-02-15T09:32:25;9.90;99.90
54461;DHT22;69977;49.414;11.010;2024-02-15T09:34:51;10.00;99.90
54461;DHT22;69977;49.414;11.010;2024-02-15T09:37:17;10.10;99.90
54461;DHT22;69977;49.414;11.010;2024-02-15T09:39:43;10.10;99.90
54461;DHT22;69977;49.414;11.010;2024-02-15T09:42:09;10.20;99.90
54461;DHT22;69977;49.414;11.010;2024-02-15T09:44:35;10.30;99.90
54461;DHT22;69977;49.414;11.010;2024-02-15T09:47:05;10.40;99.90
54461;DHT22;69977;49.414;11.010;2024-02-15T09:49:39;10.40;99.90
54461;DHT22;69977;49.414;11.010;2024-02-15T09:52:09;10.50;99.90
54461;DHT22;69977;49.414;11.010;2024-02-15T09:54:42;10.60;99.90
54461;DHT22;69977;49.414;11.010;2024-02-15T09:57:09;10.80;99.90
54461;DHT22;69977;49.414;11.010;2024-02-15T09:59:38;10.80;99.90
54461;DHT22;69977;49.414;11.010;2024-02-15T10:02:05;10.90;99.90
54461;DHT22;69977;49.414;11.010;2024-02-15T10:04:39;10.90;99.90
54461;DHT22;69977;49.414;11.010;2024-02-15T10:07:05;11.00;99.90
54461;DHT22;69977;49.414;11.010;2024-02-15T10:09:34;11.10;99.90
54461;DHT22;69977;49.414;11.010;2024-02-15T10:12:03;11.10;99.90
54461;DHT22;69977;49.414;11.010;2024-02-15T10:14:32;11.20;99.90
54461;DHT22;69977;49.414;11.010;2024-02-15T10:17:06;11.30;99.90
54461;DHT22;69977;49.414;11.010;2024-02-15T10:19:35;11.30;99.90
54461;DHT22;69977;49.414;11.010;2024-02-15T10:22:09;11.40;99.90
54461;DHT22;69977;49.414;11.010;2024-02-15T10:24:35;11.50;99.90
54461;DHT22;69977;49.414;11.010;2024-02-15T10:27:03;11.70;99.90
54461;DHT22;69977;49.414;11.010;2024-02-15T10:29:33;11.70;99.90
54461;DHT22;69977;49.414;11.010;2024-02-15T10:32:01;11.70;99.90
54461;DHT22;69977;49.414;11.010;2024-02-15T10:34:28;11.70;99.90
54461;DHT22;69977;49.414;11.010;2024-02-15T10:39:37;11.90;99.90
54461;DHT22;69977;49.414;11.010;2024-02-15T10:42:06;12.10;99.90
54461;DHT22;69977;49.414;11.010;2024-02-15T10:44:33;12.10;99.90
54461;DHT22;69977;49.414;11.010;2024-02-15T10:47:02;12.20;99.90
54461;DHT22;69977;49.414;11.010;2024-02-15T10:49:34;12.10;99.90
54461;DHT22;69977;49.414;11.010;2024-02-15T10:52:01;12.30;99.90
54461;DHT22;69977;49.414;11.010;2024-02-15T10:54:41;12.10;99.90
54461;DHT22;69977;49.414;11.010;2024-02-15T10:57:10;12.10;99.90
54461;DHT22;69977;49.414;11.010;2024-02-15T10:59:38;12.10;99.90
54461;DHT22;69977;49.414;11.010;2024-02-15T11:04:52;12.00;99.90
54461;DHT22;69977;49.414;11.010;2024-02-15T11:07:25;12.00;99.90
54461;DHT22;69977;49.414;11.010;2024-02-15T11:09:54;11.90;99.90
54461;DHT22;69977;49.414;11.010;2024-02-15T11:12:22;12.00;99.90
54461;DHT22;69977;49.414;11.010;2024-02-15T11:14:49;12.00;99.90
54461;DHT22;69977;49.414;11.010;2024-02-15T11:23:02;12.50;99.90
54461;DHT22;69977;49.414;11.010;2024-02-15T11:25:37;12.50;99.90
54461;DHT22;69977;49.414;11.010;2024-02-15T11:30:51;12.60;99.90
54461;DHT22;69977;49.414;11.010;2024-02-15T11:33:31;12.80;99.90
54461;DHT22;69977;49.414;11.010;2024-02-15T11:36:10;12.90;99.90
54461;DHT22;69977;49.414;11.010;2024-02-15T11:38:40;12.70;99.90
54461;DHT22;69977;49.414;11.010;2024-02-15T11:41:07;12.60;99.90
54461;DHT22;69977;49.414;11.010;2024-02-15T11:43:57;12.60;99.90
54461;DHT22;69977;49.414;11.010;2024-02-15T11:46:25;12.80;99.90
54461;DHT22;69977;49.414;11.010;2024-02-15T11:48:52;12.90;99.90
54461;DHT22;69977;49.414;11.010;2024-02-15T11:51:35;13.30;99.90
54461;DHT22;69977;49.414;11.010;2024-02-15T11:54:12;13.40;99.90
54461;DHT22;69977;49.414;11.010;2024-02-15T11:59:13;13.40;99.90
54461;DHT22;69977;49.414;11.010;2024-02-15T12:01:56;13.50;99.90
54461;DHT22;69977;49.414;11.010;2024-02-15T12:04:41;13.50;99.90
54461;DHT22;69977;49.414;11.010;2024-02-15T12:07:25;13.90;99.90
54461;DHT22;69977;49.414;11.010;2024-02-15T12:10:19;13.70;99.90
54461;DHT22;69977;49.414;11.010;2024-02-15T12:13:04;13.60;99.90
54461;DHT22;69977;49.414;11.010;2024-02-15T12:16:01;13.40;99.90
54461;DHT22;69977;49.414;11.010;2024-02-15T12:18:45;14.00;99.90
54461;DHT22;69977;49.414;11.010;2024-02-15T12:21:17;14.30;99.90
54461;DHT22;69977;49.414;11.010;2024-02-15T12:23:43;14.40;99.90
54461;DHT22;69977;49.414;11.010;2024-02-15T12:26:11;14.30;99.90
54461;DHT22;69977;49.414;11.010;2024-02-15T12:28:41;14.10;99.90
54461;DHT22;69977;49.414;11.010;2024-02-15T12:31:09;14.00;99.90
54461;DHT22;69977;49.414;11.010;2024-02-15T12:33:35;14.40;99.90
54461;DHT22;69977;49.414;11.010;2024-02-15T12:36:06;14.70;99.90
54461;DHT22;69977;49.414;11.010;2024-02-15T12:38:36;14.70;99.90
54461;DHT22;69977;49.414;11.010;2024-02-15T12:41:22;14.70;99.90
54461;DHT22;69977;49.414;11.010;2024-02-15T12:43:52;14.80;99.90
54461;DHT22;69977;49.414;11.010;2024-02-15T12:46:19;15.00;99.90
54461;DHT22;69977;49.414;11.010;2024-02-15T12:48:45;15.00;99.90
54461;DHT22;69977;49.414;11.010;2024-02-15T12:51:15;15.20;99.90
54461;DHT22;69977;49.414;11.010;2024-02-15T12:53:42;15.30;99.90
54461;DHT22;69977;49.414;11.010;2024-02-15T12:56:08;15.20;99.90
54461;DHT22;69977;49.414;11.010;2024-02-15T12:58:36;15.20;99.90
54461;DHT22;69977;49.414;11.010;2024-02-15T13:01:04;15.30;99.90
54461;DHT22;69977;49.414;11.010;2024-02-15T13:03:30;15.40;99.90
54461;DHT22;69977;49.414;11.010;2024-02-15T13:05:56;15.50;99.90
54461;DHT22;69977;49.414;11.010;2024-02-15T13:08:23;15.30;99.90
54461;DHT22;69977;49.414;11.010;2024-02-15T13:10:48;15.20;99.90
54461;DHT22;69977;49.414;11.010;2024-02-15T13:13:15;15.20;99.90
54461;DHT22;69977;49.414;11.010;2024-02-15T13:15:42;15.20;99.90
54461;DHT22;69977;49.414;11.010;2024-02-15T13:18:08;15.40;99.90
54461;DHT22;69977;49.414;11.010;2024-02-15T13:20:39;15.40;99.90
54461;DHT22;69977;49.414;11.010;2024-02-15T13:23:10;15.60;99.90
54461;DHT22;69977;49.414;11.010;2024-02-15T13:25:48;15.70;99.90
54461;DHT22;69977;49.414;11.010;2024-02-15T13:28:14;15.40;99.90
54461;DHT22;69977;49.414;11.010;2024-02-15T13:30:44;15.30;99.90
54461;DHT22;69977;49.414;11.010;2024-02-15T13:33:11;15.50;99.90
54461;DHT22;69977;49.414;11.010;2024-02-15T13:35:38;15.50;99.90
54461;DHT22;69977;49.414;11.010;2024-02-15T13:38:03;15.40;99.90
54461;DHT22;69977;49.414;11.010;2024-02-15T13:40:29;15.30;99.90
54461;DHT22;69977;49.414;11.010;2024-02-15T13:42:59;15.30;99.90
54461;DHT22;69977;49.414;11.010;2024-02-15T13:45:40;15.40;99.90
54461;DHT22;69977;49.414;11.010;2024-02-15T13:48:06;15.30;99.90
54461;DHT22;69977;49.414;11.010;2024-02-15T13:50:34;15.40;99.90
54461;DHT22;69977;49.414;11.010;2024-02-15T13:53:00;15.30;99.90
54461;DHT22;69977;49.414;11.010;2024-02-15T13:55:27;15.30;99.90
54461;DHT22;69977;49.414;11.010;2024-02-15T13:57:54;15.20;99.90
54461;DHT22;69977;49.414;11.010;2024-02-15T14:00:25;15.30;99.90
54461;DHT22;69977;49.414;11.010;2024-02-15T14:03:00;15.30;99.90
54461;DHT22;69977;49.414;11.010;2024-02-15T14:05:28;15.30;99.90
54461;DHT22;69977;49.414;11.010;2024-02-15T14:07:59;15.40;99.90
54461;DHT22;69977;49.414;11.010;2024-02-15T14:10:28;15.20;99.90
54461;DHT22;69977;49.414;11.010;2024-02-15T14:12:54;15.10;99.90
54461;DHT22;69977;49.414;11.010;2024-02-15T14:15:30;15.10;99.90
54461;DHT22;69977;49.414;11.010;2024-02-15T14:17:56;15.40;99.90
54461;DHT22;69977;49.414;11.010;2024-02-15T14:20:22;15.40;99.90
54461;DHT22;69977;49.414;11.010;2024-02-15T14:22:50;15.30;99.90
54461;DHT22;69977;49.414;11.010;2024-02-15T14:25:24;15.50;99.90
54461;DHT22;69977;49.414;11.010;2024-02-15T14:27:57;15.60;99.90
54461;DHT22;69977;49.414;11.010;2024-02-15T14:30:24;15.60;99.90
54461;DHT22;69977;49.414;11.010;2024-02-15T14:33:08;15.50;99.90
54461;DHT22;69977;49.414;11.010;2024-02-15T14:35:38;15.30;99.90
54461;DHT22;69977;49.414;11.010;2024-02-15T14:38:12;15.40;99.90
54461;DHT22;69977;49.414;11.010;2024-02-15T14:40:39;15.50;99.90
54461;DHT22;69977;49.414;11.010;2024-02-15T14:43:05;15.50;99.90
54461;DHT22;69977;49.414;11.010;2024-02-15T14:45:32;15.50;99.90
54461;DHT22;69977;49.414;11.010;2024-02-15T14:47:59;15.50;99.90
54461;DHT22;69977;49.414;11.010;2024-02-15T14:50:25;15.40;99.90
54461;DHT22;69977;49.414;11.010;2024-02-15T14:52:51;15.50;99.90
54461;DHT22;69977;49.414;11.010;2024-02-15T14:55:19;15.70;99.90
54461;DHT22;69977;49.414;11.010;2024-02-15T14:57:45;15.90;99.90
54461;DHT22;69977;49.414;11.010;2024-02-15T15:00:11;15.80;99.90
54461;DHT22;69977;49.414;11.010;2024-02-15T15:02:45;15.80;99.90
54461;DHT22;69977;49.414;11.010;2024-02-15T15:05:15;15.90;99.90
54461;DHT22;69977;49.414;11.010;2024-02-15T15:07:59;15.80;99.90
54461;DHT22;69977;49.414;11.010;2024-02-15T15:10:47;15.90;99.90
54461;DHT22;69977;49.414;11.010;2024-02-15T15:13:45;15.60;99.90
54461;DHT22;69977;49.414;11.010;2024-02-15T15:16:11;15.60;99.90
54461;DHT22;69977;49.414;11.010;2024-02-15T15:18:40;15.50;99.90
54461;DHT22;69977;49.414;11.010;2024-02-15T15:21:06;15.30;99.90
54461;DHT22;69977;49.414;11.010;2024-02-15T15:23:33;15.20;99.90
54461;DHT22;69977;49.414;11.010;2024-02-15T15:26:02;15.30;99.90
54461;DHT22;69977;49.414;11.010;2024-02-15T15:28:28;15.00;99.90
54461;DHT22;69977;49.414;11.010;2024-02-15T15:30:54;14.70;99.90
54461;DHT22;69977;49.414;11.010;2024-02-15T15:33:20;14.50;99.90
54461;DHT22;69977;49.414;11.010;2024-02-15T15:35:47;14.40;99.90
54461;DHT22;69977;49.414;11.010;2024-02-15T15:38:14;14.30;99.90
54461;DHT22;69977;49.414;11.010;2024-02-15T15:40:40;14.30;99.90
54461;DHT22;69977;49.414;11.010;2024-02-15T15:43:07;14.30;99.90
54461;DHT22;69977;49.414;11.010;2024-02-15T15:45:37;14.10;99.90
54461;DHT22;69977;49.414;11.010;2024-02-15T15:48:03;14.00;99.90
54461;DHT22;69977;49.414;11.010;2024-02-15T15:50:29;13.90;99.90
54461;DHT22;69977;49.414;11.010;2024-02-15T15:53:04;13.80;99.90
54461;DHT22;69977;49.414;11.010;2024-02-15T15:55:31;13.70;99.90
54461;DHT22;69977;49.414;11.010;2024-02-15T15:57:57;13.60;99.90